sensor_id;sensor_type;location;lat;lon;timestamp;temperature;humidity
16271;DHT22;8243;49.048;8.396;2022-07-29T00:02:15;21.10;49.20
16271;DHT22;8243;49.048;8.396;2022-07-29T00:04:40;21.10;50.00
16271;DHT22;8243;49.048;8.396;2022-07-29T00:07:06;21.10;50.40
16271;DHT22;8243;49.048;8.396;2022-07-29T00:09:32;21.10;50.60
16271;DHT22;8243;49.048;8.396;2022-07-29T00:11:59;21.00;51.20
16271;DHT22;8243;49.048;8.396;2022-07-29T00:14:26;21.00;51.80
16271;DHT22;8243;49.048;8.396;2022-07-29T00:16:52;21.00;52.40
16271;DHT22;8243;49.048;8.396;2022-07-29T00:19:17;20.90;52.50
16271;DHT22;8243;49.048;8.396;2022-07-29T00:21:43;20.80;53.10
16271;DHT22;8243;49.048;8.396;2022-07-29T00:24:21;20.80;53.70
16271;DHT22;8243;49.048;8.396;2022-07-29T00:26:47;20.80;54.30
16271;DHT22;8243;49.048;8.396;2022-07-29T00:29:12;20.80;54.70
16271;DHT22;8243;49.048;8.396;2022-07-29T00:31:38;20.80;54.80
16271;DHT22;8243;49.048;8.396;2022-07-29T00:34:04;20.70;55.30
16271;DHT22;8243;49.048;8.396;2022-07-29T00:36:31;20.70;55.90
16271;DHT22;8243;49.048;8.396;2022-07-29T00:38:57;20.70;56.20
16271;DHT22;8243;49.048;8.396;2022-07-29T00:41:23;20.70;56.50
16271;DHT22;8243;49.048;8.396;2022-07-29T00:43:49;20.70;56.60
16271;DHT22;8243;49.048;8.396;2022-07-29T00:46:14;20.70;57.30
16271;DHT22;8243;49.048;8.396;2022-07-29T00:48:40;20.60;57.80
16271;DHT22;8243;49.048;8.396;2022-07-29T00:51:06;20.60;58.80
16271;DHT22;8243;49.048;8.396;2022-07-29T00:53:33;20.50;59.80
16271;DHT22;8243;49.048;8.396;2022-07-29T00:55:59;20.50;60.30
16271;DHT22;8243;49.048;8.396;2022-07-29T00:58:29;20.40;60.90
16271;DHT22;8243;49.048;8.396;2022-07-29T01:00:54;20.40;62.10
16271;DHT22;8243;49.048;8.396;2022-07-29T01:03:20;20.40;63.30
16271;DHT22;8243;49.048;8.396;2022-07-29T01:05:46;20.30;63.70
16271;DHT22;8243;49.048;8.396;2022-07-29T01:08:15;20.30;64.40
16271;DHT22;8243;49.048;8.396;2022-07-29T01:10:44;20.30;65.20
16271;DHT22;8243;49.048;8.396;2022-07-29T01:13:11;20.20;65.50
16271;DHT22;8243;49.048;8.396;2022-07-29T01:15:54;20.20;66.60
16271;DHT22;8243;49.048;8.396;2022-07-29T01:18:32;20.20;67.80
16271;DHT22;8243;49.048;8.396;2022-07-29T01:30:01;20.00;73.00
16271;DHT22;8243;49.048;8.396;2022-07-29T01:32:29;20.00;74.40
16271;DHT22;8243;49.048;8.396;2022-07-29T01:40:43;19.90;76.50
16271;DHT22;8243;49.048;8.396;2022-07-29T01:43:14;19.90;77.30
16271;DHT22;8243;49.048;8.396;2022-07-29T01:46:01;19.70;77.70
16271;DHT22;8243;49.048;8.396;2022-07-29T01:51:05;19.70;81.30
16271;DHT22;8243;49.048;8.396;2022-07-29T01:54:16;19.70;82.30
16271;DHT22;8243;49.048;8.396;2022-07-29T01:56:39;19.60;84.50
16271;DHT22;8243;49.048;8.396;2022-07-29T01:59:08;19.50;87.50
16271;DHT22;8243;49.048;8.396;2022-07-29T02:01:35;19.50;88.60
16271;DHT22;8243;49.048;8.396;2022-07-29T02:04:06;19.50;90.00
16271;DHT22;8243;49.048;8.396;2022-07-29T02:06:36;19.40;90.60
16271;DHT22;8243;49.048;8.396;2022-07-29T02:09:03;19.40;91.20
16271;DHT22;8243;49.048;8.396;2022-07-29T02:11:33;19.40;91.60
16271;DHT22;8243;49.048;8.396;2022-07-29T02:14:00;19.30;93.30
16271;DHT22;8243;49.048;8.396;2022-07-29T02:16:28;19.20;95.50
16271;DHT22;8243;49.048;8.396;2022-07-29T02:18:57;19.20;97.60
16271;DHT22;8243;49.048;8.396;2022-07-29T02:21:24;19.10;98.50
16271;DHT22;8243;49.048;8.396;2022-07-29T02:23:52;19.10;99.10
16271;DHT22;8243;49.048;8.396;2022-07-29T02:26:20;19.10;99.60
16271;DHT22;8243;49.048;8.396;2022-07-29T02:28:49;19.00;99.90
16271;DHT22;8243;49.048;8.396;2022-07-29T02:31:16;19.00;99.90
16271;DHT22;8243;49.048;8.396;2022-07-29T02:33:45;18.90;99.90
16271;DHT22;8243;49.048;8.396;2022-07-29T02:36:12;18.80;99.90
16271;DHT22;8243;49.048;8.396;2022-07-29T02:38:41;18.80;99.90
16271;DHT22;8243;49.048;8.396;2022-07-29T02:41:28;18.70;99.90
16271;DHT22;8243;49.048;8.396;2022-07-29T02:43:58;18.70;99.90
16271;DHT22;8243;49.048;8.396;2022-07-29T02:46:30;18.60;99.90
16271;DHT22;8243;49.048;8.396;2022-07-29T02:49:28;18.60;99.90
16271;DHT22;8243;49.048;8.396;2022-07-29T02:52:27;18.70;99.90
16271;DHT22;8243;49.048;8.396;2022-07-29T02:55:19;18.70;99.90
16271;DHT22;8243;49.048;8.396;2022-07-29T02:58:03;18.60;99.90
16271;DHT22;8243;49.048;8.396;2022-07-29T03:00:33;18.60;99.90
16271;DHT22;8243;49.048;8.396;2022-07-29T03:03:04;18.60;99.90
16271;DHT22;8243;49.048;8.396;2022-07-29T03:05:31;18.50;99.90
16271;DHT22;8243;49.048;8.396;2022-07-29T03:08:08;18.40;99.90
16271;DHT22;8243;49.048;8.396;2022-07-29T03:10:35;18.30;99.90
16271;DHT22;8243;49.048;8.396;2022-07-29T03:13:02;18.30;99.90
16271;DHT22;8243;49.048;8.396;2022-07-29T03:15:28;18.20;99.90
16271;DHT22;8243;49.048;8.396;2022-07-29T03:17:57;18.20;99.90
16271;DHT22;8243;49.048;8.396;2022-07-29T03:20:25;18.20;99.90
16271;DHT22;8243;49.048;8.396;2022-07-29T03:22:51;18.20;99.90
16271;DHT22;8243;49.048;8.396;2022-07-29T03:25:19;18.20;99.90
16271;DHT22;8243;49.048;8.396;2022-07-29T03:27:47;18.30;99.90
16271;DHT22;8243;49.048;8.396;2022-07-29T03:30:13;18.20;99.90
16271;DHT22;8243;49.048;8.396;2022-07-29T03:32:40;18.20;99.90
16271;DHT22;8243;49.048;8.396;2022-07-29T03:35:07;18.20;99.90
16271;DHT22;8243;49.048;8.396;2022-07-29T03:37:33;18.30;99.90
16271;DHT22;8243;49.048;8.396;2022-07-29T03:40:00;18.30;99.90
16271;DHT22;8243;49.048;8.396;2022-07-29T03:42:30;18.30;99.90
16271;DHT22;8243;49.048;8.396;2022-07-29T03:44:57;18.30;99.90
16271;DHT22;8243;49.048;8.396;2022-07-29T03:47:26;18.20;99.90
16271;DHT22;8243;49.048;8.396;2022-07-29T03:49:56;18.10;99.90
16271;DHT22;8243;49.048;8.396;2022-07-29T03:52:25;18.10;99.90
16271;DHT22;8243;49.048;8.396;2022-07-29T03:54:51;18.00;99.90
16271;DHT22;8243;49.048;8.396;2022-07-29T03:57:18;18.10;99.90
16271;DHT22;8243;49.048;8.396;2022-07-29T03:59:45;18.00;99.90
16271;DHT22;8243;49.048;8.396;2022-07-29T04:02:12;18.00;99.90
16271;DHT22;8243;49.048;8.396;2022-07-29T04:04:41;17.90;99.90
16271;DHT22;8243;49.048;8.396;2022-07-29T04:07:07;18.00;99.90
16271;DHT22;8243;49.048;8.396;2022-07-29T04:09:36;18.00;99.90
16271;DHT22;8243;49.048;8.396;2022-07-29T04:12:02;17.90;99.90
16271;DHT22;8243;49.048;8.396;2022-07-29T04:14:28;17.90;99.90
16271;DHT22;8243;49.048;8.396;2022-07-29T04:16:54;17.90;99.90
16271;DHT22;8243;49.048;8.396;2022-07-29T04:19:19;17.90;99.90
16271;DHT22;8243;49.048;8.396;2022-07-29T04:21:45;17.90;99.90
16271;DHT22;8243;49.048;8.396;2022-07-29T04:24:10;17.90;99.90
16271;DHT22;8243;49.048;8.396;2022-07-29T04:26:36;17.90;99.90
16271;DHT22;8243;49.048;8.396;2022-07-29T04:29:02;18.10;99.90
16271;DHT22;8243;49.048;8.396;2022-07-29T04:31:28;18.40;99.90
16271;DHT22;8243;49.048;8.396;2022-07-29T04:33:53;18.80;99.90
16271;DHT22;8243;49.048;8.396;2022-07-29T04:36:19;19.00;99.90
16271;DHT22;8243;49.048;8.396;2022-07-29T04:38:44;19.00;99.90
16271;DHT22;8243;49.048;8.396;2022-07-29T04:41:10;19.00;99.90
16271;DHT22;8243;49.048;8.396;2022-07-29T04:43:36;18.90;99.90
16271;DHT22;8243;49.048;8.396;2022-07-29T04:46:03;19.10;99.90
16271;DHT22;8243;49.048;8.396;2022-07-29T04:48:29;19.60;99.90
16271;DHT22;8243;49.048;8.396;2022-07-29T04:50:56;20.20;94.40
16271;DHT22;8243;49.048;8.396;2022-07-29T04:53:21;20.60;85.70
16271;DHT22;8243;49.048;8.396;2022-07-29T04:55:47;21.10;73.60
16271;DHT22;8243;49.048;8.396;2022-07-29T04:58:13;21.60;69.10
16271;DHT22;8243;49.048;8.396;2022-07-29T05:00:39;21.80;62.10
16271;DHT22;8243;49.048;8.396;2022-07-29T05:03:05;21.50;61.70
16271;DHT22;8243;49.048;8.396;2022-07-29T05:05:31;21.00;64.00
16271;DHT22;8243;49.048;8.396;2022-07-29T05:07:57;20.70;66.40
16271;DHT22;8243;49.048;8.396;2022-07-29T05:10:23;20.60;67.70
16271;DHT22;8243;49.048;8.396;2022-07-29T05:12:48;20.50;69.30
16271;DHT22;8243;49.048;8.396;2022-07-29T05:15:17;20.40;68.90
16271;DHT22;8243;49.048;8.396;2022-07-29T05:17:43;20.30;70.40
16271;DHT22;8243;49.048;8.396;2022-07-29T05:20:12;20.00;75.10
16271;DHT22;8243;49.048;8.396;2022-07-29T05:22:38;20.10;78.30
16271;DHT22;8243;49.048;8.396;2022-07-29T05:25:04;21.00;73.10
16271;DHT22;8243;49.048;8.396;2022-07-29T05:27:29;22.00;62.30
16271;DHT22;8243;49.048;8.396;2022-07-29T05:29:55;22.80;55.70
16271;DHT22;8243;49.048;8.396;2022-07-29T05:32:21;23.70;48.80
16271;DHT22;8243;49.048;8.396;2022-07-29T05:34:47;24.40;44.00
16271;DHT22;8243;49.048;8.396;2022-07-29T05:37:12;24.80;39.70
16271;DHT22;8243;49.048;8.396;2022-07-29T05:39:39;25.10;37.10
16271;DHT22;8243;49.048;8.396;2022-07-29T05:42:11;26.00;31.50
16271;DHT22;8243;49.048;8.396;2022-07-29T05:44:38;26.50;28.30
16271;DHT22;8243;49.048;8.396;2022-07-29T05:47:03;27.30;25.50
16271;DHT22;8243;49.048;8.396;2022-07-29T05:49:29;26.90;24.50
16271;DHT22;8243;49.048;8.396;2022-07-29T05:51:54;26.20;25.50
16271;DHT22;8243;49.048;8.396;2022-07-29T05:54:20;26.40;25.40
16271;DHT22;8243;49.048;8.396;2022-07-29T05:56:46;26.90;23.00
16271;DHT22;8243;49.048;8.396;2022-07-29T05:59:11;27.50;21.30
16271;DHT22;8243;49.048;8.396;2022-07-29T06:01:37;27.90;19.90
16271;DHT22;8243;49.048;8.396;2022-07-29T06:04:05;28.10;18.80
16271;DHT22;8243;49.048;8.396;2022-07-29T06:06:32;28.60;17.50
16271;DHT22;8243;49.048;8.396;2022-07-29T06:08:58;29.00;16.40
16271;DHT22;8243;49.048;8.396;2022-07-29T06:11:24;29.40;15.30
16271;DHT22;8243;49.048;8.396;2022-07-29T06:13:50;29.50;14.40
16271;DHT22;8243;49.048;8.396;2022-07-29T06:16:16;29.80;13.60
16271;DHT22;8243;49.048;8.396;2022-07-29T06:18:42;29.80;13.00
16271;DHT22;8243;49.048;8.396;2022-07-29T06:21:09;29.70;13.10
16271;DHT22;8243;49.048;8.396;2022-07-29T06:23:36;28.70;13.80
16271;DHT22;8243;49.048;8.396;2022-07-29T06:26:05;28.10;15.00
16271;DHT22;8243;49.048;8.396;2022-07-29T06:28:51;27.70;15.90
16271;DHT22;8243;49.048;8.396;2022-07-29T06:31:17;27.10;16.70
16271;DHT22;8243;49.048;8.396;2022-07-29T06:33:43;26.70;18.40
16271;DHT22;8243;49.048;8.396;2022-07-29T06:36:09;26.20;19.40
16271;DHT22;8243;49.048;8.396;2022-07-29T06:38:35;26.40;18.80
16271;DHT22;8243;49.048;8.396;2022-07-29T06:41:03;26.20;19.10
16271;DHT22;8243;49.048;8.396;2022-07-29T06:43:35;26.50;19.30
16271;DHT22;8243;49.048;8.396;2022-07-29T06:46:05;26.90;18.50
16271;DHT22;8243;49.048;8.396;2022-07-29T06:48:32;27.70;16.80
16271;DHT22;8243;49.048;8.396;2022-07-29T06:50:58;29.10;15.30
16271;DHT22;8243;49.048;8.396;2022-07-29T06:53:24;29.80;14.10
16271;DHT22;8243;49.048;8.396;2022-07-29T06:55:50;30.30;12.40
16271;DHT22;8243;49.048;8.396;2022-07-29T06:58:15;29.90;12.70
16271;DHT22;8243;49.048;8.396;2022-07-29T07:00:44;29.20;13.30
16271;DHT22;8243;49.048;8.396;2022-07-29T07:03:10;29.40;13.30
16271;DHT22;8243;49.048;8.396;2022-07-29T07:05:36;28.90;14.00
16271;DHT22;8243;49.048;8.396;2022-07-29T07:08:02;28.30;15.70
16271;DHT22;8243;49.048;8.396;2022-07-29T07:10:29;28.50;14.80
16271;DHT22;8243;49.048;8.396;2022-07-29T07:12:54;28.70;14.80
16271;DHT22;8243;49.048;8.396;2022-07-29T07:15:20;29.90;13.40
16271;DHT22;8243;49.048;8.396;2022-07-29T07:17:48;30.70;12.30
16271;DHT22;8243;49.048;8.396;2022-07-29T07:20:15;31.60;10.70
16271;DHT22;8243;49.048;8.396;2022-07-29T07:22:41;31.90;9.60
16271;DHT22;8243;49.048;8.396;2022-07-29T07:25:07;32.60;8.70
16271;DHT22;8243;49.048;8.396;2022-07-29T07:27:33;32.40;8.60
16271;DHT22;8243;49.048;8.396;2022-07-29T07:29:58;32.40;8.90
16271;DHT22;8243;49.048;8.396;2022-07-29T07:32:24;32.50;8.50
16271;DHT22;8243;49.048;8.396;2022-07-29T07:34:49;32.60;8.60
16271;DHT22;8243;49.048;8.396;2022-07-29T07:37:15;33.20;7.80
16271;DHT22;8243;49.048;8.396;2022-07-29T07:39:41;32.90;7.50
16271;DHT22;8243;49.048;8.396;2022-07-29T07:42:06;32.20;8.10
16271;DHT22;8243;49.048;8.396;2022-07-29T07:44:32;31.30;9.30
16271;DHT22;8243;49.048;8.396;2022-07-29T07:46:58;30.20;10.90
16271;DHT22;8243;49.048;8.396;2022-07-29T07:49:23;29.50;11.90
16271;DHT22;8243;49.048;8.396;2022-07-29T07:51:49;29.40;13.00
16271;DHT22;8243;49.048;8.396;2022-07-29T07:54:14;29.70;12.40
16271;DHT22;8243;49.048;8.396;2022-07-29T07:56:40;30.70;11.50
16271;DHT22;8243;49.048;8.396;2022-07-29T07:59:06;30.80;10.90
16271;DHT22;8243;49.048;8.396;2022-07-29T08:01:31;30.40;11.00
16271;DHT22;8243;49.048;8.396;2022-07-29T08:03:57;29.70;12.10
16271;DHT22;8243;49.048;8.396;2022-07-29T08:06:22;29.30;13.30
16271;DHT22;8243;49.048;8.396;2022-07-29T08:08:50;30.20;12.20
16271;DHT22;8243;49.048;8.396;2022-07-29T08:11:16;31.80;10.90
16271;DHT22;8243;49.048;8.396;2022-07-29T08:13:42;32.70;8.70
16271;DHT22;8243;49.048;8.396;2022-07-29T08:16:08;32.40;7.60
16271;DHT22;8243;49.048;8.396;2022-07-29T08:18:38;31.70;7.80
16271;DHT22;8243;49.048;8.396;2022-07-29T08:21:25;30.40;9.60
16271;DHT22;8243;49.048;8.396;2022-07-29T08:23:50;29.70;9.90
16271;DHT22;8243;49.048;8.396;2022-07-29T08:26:40;29.80;10.70
16271;DHT22;8243;49.048;8.396;2022-07-29T08:29:06;29.70;10.60
16271;DHT22;8243;49.048;8.396;2022-07-29T08:31:31;29.70;11.10
16271;DHT22;8243;49.048;8.396;2022-07-29T08:33:57;29.90;10.70
16271;DHT22;8243;49.048;8.396;2022-07-29T08:36:25;31.00;8.90
16271;DHT22;8243;49.048;8.396;2022-07-29T08:38:51;31.70;7.40
16271;DHT22;8243;49.048;8.396;2022-07-29T08:41:18;32.00;7.50
16271;DHT22;8243;49.048;8.396;2022-07-29T08:43:44;32.50;6.20
16271;DHT22;8243;49.048;8.396;2022-07-29T08:46:10;32.80;6.00
16271;DHT22;8243;49.048;8.396;2022-07-29T08:48:36;33.20;5.10
16271;DHT22;8243;49.048;8.396;2022-07-29T08:51:02;33.40;4.70
16271;DHT22;8243;49.048;8.396;2022-07-29T08:53:28;33.90;3.70
16271;DHT22;8243;49.048;8.396;2022-07-29T08:55:54;33.60;3.80
16271;DHT22;8243;49.048;8.396;2022-07-29T08:58:21;33.40;3.80
16271;DHT22;8243;49.048;8.396;2022-07-29T09:00:52;32.00;5.10
16271;DHT22;8243;49.048;8.396;2022-07-29T09:03:20;31.40;5.60
16271;DHT22;8243;49.048;8.396;2022-07-29T09:05:47;30.70;6.10
16271;DHT22;8243;49.048;8.396;2022-07-29T09:08:14;31.10;5.90
16271;DHT22;8243;49.048;8.396;2022-07-29T09:10:40;31.40;5.60
16271;DHT22;8243;49.048;8.396;2022-07-29T09:13:06;32.10;5.60
16271;DHT22;8243;49.048;8.396;2022-07-29T09:15:32;32.80;4.50
16271;DHT22;8243;49.048;8.396;2022-07-29T09:17:57;33.00;4.00
16271;DHT22;8243;49.048;8.396;2022-07-29T09:20:24;33.40;3.20
16271;DHT22;8243;49.048;8.396;2022-07-29T09:22:51;33.50;2.80
16271;DHT22;8243;49.048;8.396;2022-07-29T09:25:38;33.80;2.90
16271;DHT22;8243;49.048;8.396;2022-07-29T09:28:10;33.90;2.70
16271;DHT22;8243;49.048;8.396;2022-07-29T09:30:53;34.00;2.80
16271;DHT22;8243;49.048;8.396;2022-07-29T09:33:21;33.90;2.70
16271;DHT22;8243;49.048;8.396;2022-07-29T09:35:58;33.50;3.00
16271;DHT22;8243;49.048;8.396;2022-07-29T09:38:24;33.70;3.40
16271;DHT22;8243;49.048;8.396;2022-07-29T09:40:57;33.20;3.70
16271;DHT22;8243;49.048;8.396;2022-07-29T09:43:23;33.70;3.50
16271;DHT22;8243;49.048;8.396;2022-07-29T09:45:48;33.70;2.70
16271;DHT22;8243;49.048;8.396;2022-07-29T09:48:20;33.90;2.60
16271;DHT22;8243;49.048;8.396;2022-07-29T09:50:47;34.30;2.30
16271;DHT22;8243;49.048;8.396;2022-07-29T09:55:57;33.70;2.70
16271;DHT22;8243;49.048;8.396;2022-07-29T09:58:23;33.10;3.20
16271;DHT22;8243;49.048;8.396;2022-07-29T10:00:50;32.60;4.00
16271;DHT22;8243;49.048;8.396;2022-07-29T10:03:16;33.00;3.80
16271;DHT22;8243;49.048;8.396;2022-07-29T10:05:43;32.90;4.00
16271;DHT22;8243;49.048;8.396;2022-07-29T10:08:10;32.30;4.90
16271;DHT22;8243;49.048;8.396;2022-07-29T10:10:40;31.80;5.40
16271;DHT22;8243;49.048;8.396;2022-07-29T10:13:13;31.80;4.70
16271;DHT22;8243;49.048;8.396;2022-07-29T10:15:41;32.40;4.20
16271;DHT22;8243;49.048;8.396;2022-07-29T10:18:11;32.70;3.50
16271;DHT22;8243;49.048;8.396;2022-07-29T10:20:37;33.30;3.00
16271;DHT22;8243;49.048;8.396;2022-07-29T10:23:04;33.00;2.60
16271;DHT22;8243;49.048;8.396;2022-07-29T10:25:30;33.20;2.70
16271;DHT22;8243;49.048;8.396;2022-07-29T10:27:56;33.20;2.50
16271;DHT22;8243;49.048;8.396;2022-07-29T10:30:24;33.10;2.40
16271;DHT22;8243;49.048;8.396;2022-07-29T10:36:05;33.20;2.70
16271;DHT22;8243;49.048;8.396;2022-07-29T10:44:20;32.90;2.50
16271;DHT22;8243;49.048;8.396;2022-07-29T10:46:46;32.50;3.70
16271;DHT22;8243;49.048;8.396;2022-07-29T10:49:20;33.00;3.40
16271;DHT22;8243;49.048;8.396;2022-07-29T10:54:43;32.80;3.20
16271;DHT22;8243;49.048;8.396;2022-07-29T10:57:17;32.60;3.40
16271;DHT22;8243;49.048;8.396;2022-07-29T10:59:45;32.50;3.70
16271;DHT22;8243;49.048;8.396;2022-07-29T11:05:17;32.60;3.80
16271;DHT22;8243;49.048;8.396;2022-07-29T11:10:38;32.80;3.70
16271;DHT22;8243;49.048;8.396;2022-07-29T11:13:04;32.60;3.80
16271;DHT22;8243;49.048;8.396;2022-07-29T11:15:53;32.60;3.80
16271;DHT22;8243;49.048;8.396;2022-07-29T11:18:19;32.60;3.70
16271;DHT22;8243;49.048;8.396;2022-07-29T11:20:47;32.80;4.00
16271;DHT22;8243;49.048;8.396;2022-07-29T11:23:29;32.80;3.80
16271;DHT22;8243;49.048;8.396;2022-07-29T11:26:19;32.30;4.20
16271;DHT22;8243;49.048;8.396;2022-07-29T11:28:57;31.60;4.70
16271;DHT22;8243;49.048;8.396;2022-07-29T11:31:42;31.70;5.10
16271;DHT22;8243;49.048;8.396;2022-07-29T11:34:26;31.60;4.80
16271;DHT22;8243;49.048;8.396;2022-07-29T11:39:36;31.60;4.80
16271;DHT22;8243;49.048;8.396;2022-07-29T11:45:05;31.60;4.90
16271;DHT22;8243;49.048;8.396;2022-07-29T11:47:35;31.60;4.90
16271;DHT22;8243;49.048;8.396;2022-07-29T11:50:03;31.60;5.70
16271;DHT22;8243;49.048;8.396;2022-07-29T11:52:40;31.40;5.30
16271;DHT22;8243;49.048;8.396;2022-07-29T11:55:21;31.60;5.00
16271;DHT22;8243;49.048;8.396;2022-07-29T11:57:50;31.80;4.90
16271;DHT22;8243;49.048;8.396;2022-07-29T12:00:23;31.80;4.70
16271;DHT22;8243;49.048;8.396;2022-07-29T12:02:51;31.90;4.90
16271;DHT22;8243;49.048;8.396;2022-07-29T12:05:18;32.20;4.20
16271;DHT22;8243;49.048;8.396;2022-07-29T12:07:44;32.30;4.30
16271;DHT22;8243;49.048;8.396;2022-07-29T12:10:09;32.60;3.60
16271;DHT22;8243;49.048;8.396;2022-07-29T12:12:36;32.50;3.80
16271;DHT22;8243;49.048;8.396;2022-07-29T12:15:12;32.40;3.50
16271;DHT22;8243;49.048;8.396;2022-07-29T12:17:38;32.20;3.90
16271;DHT22;8243;49.048;8.396;2022-07-29T12:20:05;32.00;4.30
16271;DHT22;8243;49.048;8.396;2022-07-29T12:22:40;32.00;4.90
16271;DHT22;8243;49.048;8.396;2022-07-29T12:25:12;31.90;4.50
16271;DHT22;8243;49.048;8.396;2022-07-29T12:27:40;31.90;4.20
16271;DHT22;8243;49.048;8.396;2022-07-29T12:30:08;32.10;4.30
16271;DHT22;8243;49.048;8.396;2022-07-29T12:32:35;32.10;4.70
16271;DHT22;8243;49.048;8.396;2022-07-29T12:35:06;32.30;3.50
16271;DHT22;8243;49.048;8.396;2022-07-29T12:37:34;32.20;3.50
16271;DHT22;8243;49.048;8.396;2022-07-29T12:40:01;32.20;3.40
16271;DHT22;8243;49.048;8.396;2022-07-29T12:42:27;32.00;3.30
16271;DHT22;8243;49.048;8.396;2022-07-29T12:44:53;32.10;2.80
16271;DHT22;8243;49.048;8.396;2022-07-29T12:47:20;32.30;2.70
16271;DHT22;8243;49.048;8.396;2022-07-29T12:49:46;32.60;2.00
16271;DHT22;8243;49.048;8.396;2022-07-29T12:52:40;32.90;1.50
16271;DHT22;8243;49.048;8.396;2022-07-29T12:55:06;33.00;1.00
16271;DHT22;8243;49.048;8.396;2022-07-29T12:57:32;32.90;1.10
16271;DHT22;8243;49.048;8.396;2022-07-29T13:00:11;32.90;1.00
16271;DHT22;8243;49.048;8.396;2022-07-29T13:02:38;32.90;1.50
16271;DHT22;8243;49.048;8.396;2022-07-29T13:05:05;33.10;1.00
16271;DHT22;8243;49.048;8.396;2022-07-29T13:07:32;32.90;1.00
16271;DHT22;8243;49.048;8.396;2022-07-29T13:10:16;32.60;1.40
16271;DHT22;8243;49.048;8.396;2022-07-29T13:13:09;32.70;2.00
16271;DHT22;8243;49.048;8.396;2022-07-29T13:15:38;32.70;1.70
16271;DHT22;8243;49.048;8.396;2022-07-29T13:18:05;32.60;1.80
16271;DHT22;8243;49.048;8.396;2022-07-29T13:20:31;32.70;2.10
16271;DHT22;8243;49.048;8.396;2022-07-29T13:22:58;32.70;1.60
16271;DHT22;8243;49.048;8.396;2022-07-29T13:25:31;32.30;1.80
16271;DHT22;8243;49.048;8.396;2022-07-29T13:27:58;32.20;1.60
16271;DHT22;8243;49.048;8.396;2022-07-29T13:30:24;31.80;1.70
16271;DHT22;8243;49.048;8.396;2022-07-29T13:32:52;31.90;2.60
16271;DHT22;8243;49.048;8.396;2022-07-29T13:35:18;32.00;2.10
16271;DHT22;8243;49.048;8.396;2022-07-29T13:37:44;32.10;2.00
16271;DHT22;8243;49.048;8.396;2022-07-29T13:40:11;31.90;1.90
16271;DHT22;8243;49.048;8.396;2022-07-29T13:42:38;31.60;1.70
16271;DHT22;8243;49.048;8.396;2022-07-29T13:45:05;31.40;2.00
16271;DHT22;8243;49.048;8.396;2022-07-29T13:47:32;31.20;2.00
16271;DHT22;8243;49.048;8.396;2022-07-29T13:49:57;31.20;2.80
16271;DHT22;8243;49.048;8.396;2022-07-29T13:52:24;31.30;2.70
16271;DHT22;8243;49.048;8.396;2022-07-29T13:54:49;31.30;2.20
16271;DHT22;8243;49.048;8.396;2022-07-29T13:57:16;31.30;1.80
16271;DHT22;8243;49.048;8.396;2022-07-29T13:59:43;31.30;1.60
16271;DHT22;8243;49.048;8.396;2022-07-29T14:02:09;31.50;1.90
16271;DHT22;8243;49.048;8.396;2022-07-29T14:04:35;31.60;1.60
16271;DHT22;8243;49.048;8.396;2022-07-29T14:07:02;31.70;1.00
16271;DHT22;8243;49.048;8.396;2022-07-29T14:09:27;31.60;1.30
16271;DHT22;8243;49.048;8.396;2022-07-29T14:11:53;31.70;1.00
16271;DHT22;8243;49.048;8.396;2022-07-29T14:14:19;31.30;1.00
16271;DHT22;8243;49.048;8.396;2022-07-29T14:16:45;31.00;1.30
16271;DHT22;8243;49.048;8.396;2022-07-29T14:19:11;31.00;1.40
16271;DHT22;8243;49.048;8.396;2022-07-29T14:21:38;30.90;1.50
16271;DHT22;8243;49.048;8.396;2022-07-29T14:24:04;31.00;1.80
16271;DHT22;8243;49.048;8.396;2022-07-29T14:26:30;31.00;1.30
16271;DHT22;8243;49.048;8.396;2022-07-29T14:28:56;31.10;1.00
16271;DHT22;8243;49.048;8.396;2022-07-29T14:31:21;31.10;1.00
16271;DHT22;8243;49.048;8.396;2022-07-29T14:33:47;30.90;1.00
16271;DHT22;8243;49.048;8.396;2022-07-29T14:36:25;30.60;1.00
16271;DHT22;8243;49.048;8.396;2022-07-29T14:38:51;30.50;1.00
16271;DHT22;8243;49.048;8.396;2022-07-29T14:41:18;30.50;1.00
16271;DHT22;8243;49.048;8.396;2022-07-29T14:43:44;30.70;1.00
16271;DHT22;8243;49.048;8.396;2022-07-29T14:46:09;31.00;1.00
16271;DHT22;8243;49.048;8.396;2022-07-29T14:48:35;31.10;1.00
16271;DHT22;8243;49.048;8.396;2022-07-29T14:51:01;31.30;1.00
16271;DHT22;8243;49.048;8.396;2022-07-29T14:53:27;31.30;1.00
16271;DHT22;8243;49.048;8.396;2022-07-29T14:55:53;31.00;1.00
16271;DHT22;8243;49.048;8.396;2022-07-29T14:58:19;30.80;1.00
16271;DHT22;8243;49.048;8.396;2022-07-29T15:00:49;30.70;1.00
16271;DHT22;8243;49.048;8.396;2022-07-29T15:03:15;30.70;1.00
16271;DHT22;8243;49.048;8.396;2022-07-29T15:05:40;30.80;1.00
16271;DHT22;8243;49.048;8.396;2022-07-29T15:08:07;30.90;1.00
16271;DHT22;8243;49.048;8.396;2022-07-29T15:10:33;31.00;1.00
16271;DHT22;8243;49.048;8.396;2022-07-29T15:12:59;31.20;1.00
16271;DHT22;8243;49.048;8.396;2022-07-29T15:15:25;31.10;1.00
16271;DHT22;8243;49.048;8.396;2022-07-29T15:17:50;31.10;1.00
16271;DHT22;8243;49.048;8.396;2022-07-29T15:20:16;31.10;1.00
16271;DHT22;8243;49.048;8.396;2022-07-29T15:22:41;30.90;1.00
16271;DHT22;8243;49.048;8.396;2022-07-29T15:25:08;30.50;1.00
16271;DHT22;8243;49.048;8.396;2022-07-29T15:27:33;30.50;1.00
16271;DHT22;8243;49.048;8.396;2022-07-29T15:29:59;30.70;1.00
16271;DHT22;8243;49.048;8.396;2022-07-29T15:32:25;30.90;1.00
16271;DHT22;8243;49.048;8.396;2022-07-29T15:34:50;31.00;1.00
16271;DHT22;8243;49.048;8.396;2022-07-29T15:37:16;31.20;1.00
16271;DHT22;8243;49.048;8.396;2022-07-29T15:39:45;31.40;1.00
16271;DHT22;8243;49.048;8.396;2022-07-29T15:42:11;31.40;1.00
16271;DHT22;8243;49.048;8.396;2022-07-29T15:44:36;31.30;1.00
16271;DHT22;8243;49.048;8.396;2022-07-29T15:47:04;31.00;1.00
16271;DHT22;8243;49.048;8.396;2022-07-29T15:49:35;31.00;1.00
16271;DHT22;8243;49.048;8.396;2022-07-29T15:52:08;31.30;1.00
16271;DHT22;8243;49.048;8.396;2022-07-29T15:54:35;31.30;1.00
16271;DHT22;8243;49.048;8.396;2022-07-29T15:57:03;31.10;1.00
16271;DHT22;8243;49.048;8.396;2022-07-29T15:59:41;30.80;1.00
16271;DHT22;8243;49.048;8.396;2022-07-29T16:02:07;30.60;1.00
16271;DHT22;8243;49.048;8.396;2022-07-29T16:04:40;30.50;1.00
16271;DHT22;8243;49.048;8.396;2022-07-29T16:07:14;30.40;1.00
16271;DHT22;8243;49.048;8.396;2022-07-29T16:09:40;30.30;1.00
16271;DHT22;8243;49.048;8.396;2022-07-29T16:12:06;30.30;1.00
16271;DHT22;8243;49.048;8.396;2022-07-29T16:14:37;30.20;1.00
16271;DHT22;8243;49.048;8.396;2022-07-29T16:17:03;30.00;1.00
16271;DHT22;8243;49.048;8.396;2022-07-29T16:19:33;30.00;1.00
16271;DHT22;8243;49.048;8.396;2022-07-29T16:22:02;29.90;1.00
16271;DHT22;8243;49.048;8.396;2022-07-29T16:24:34;30.00;1.00
16271;DHT22;8243;49.048;8.396;2022-07-29T16:27:06;30.00;1.00
16271;DHT22;8243;49.048;8.396;2022-07-29T16:29:31;30.00;1.00
16271;DHT22;8243;49.048;8.396;2022-07-29T16:31:57;29.90;1.00
16271;DHT22;8243;49.048;8.396;2022-07-29T16:34:23;29.80;1.00
16271;DHT22;8243;49.048;8.396;2022-07-29T16:36:50;29.80;1.00
16271;DHT22;8243;49.048;8.396;2022-07-29T16:39:18;29.90;1.00
16271;DHT22;8243;49.048;8.396;2022-07-29T16:41:44;30.00;1.00
16271;DHT22;8243;49.048;8.396;2022-07-29T16:44:09;30.30;1.00
16271;DHT22;8243;49.048;8.396;2022-07-29T16:46:35;30.30;1.00